Time;durP1;ratioP1;P1;durP2;ratioP2;P2;SDS_P1;SDS_P2;PMS_P1;PMS_P2;Temp;Humidity;BMP_temperature;BMP_pressure;BME280_temperature;BME280_humidity;BME280_pressure;Samples;Min_cycle;Max_cycle;Signal;HPM_P1;HPM_P2
2022/10/13 00:01:36;;;;;;;;;;;20.40;67.50;;;;;;5009143;28;907;-67
2022/10/13 00:04:01;;;;;;;;;;;20.40;67.60;;;;;;5017872;28;880;-67
2022/10/13 00:06:27;;;;;;;;;;;20.40;67.60;;;;;;5004341;28;908;-66
2022/10/13 00:08:52;;;;;;;;;;;20.40;67.60;;;;;;5020404;28;1241;-67
2022/10/13 00:11:22;;;;;;;;;;;20.40;67.60;;;;;;4992941;28;1274;-67
2022/10/13 00:13:47;;;;;;;;;;;20.40;67.60;;;;;;5005344;28;1074;-66
2022/10/13 00:16:17;;;;;;;;;;;20.40;67.60;;;;;;5002557;28;1054;-67
2022/10/13 00:18:43;;;;;;;;;;;20.40;67.60;;;;;;5020968;28;1961;-67
2022/10/13 00:21:09;;;;;;;;;;;20.40;67.70;;;;;;5021157;28;825;-67
2022/10/13 00:23:34;;;;;;;;;;;20.40;67.60;;;;;;5017485;28;920;-68
2022/10/13 00:26:01;;;;;;;;;;;20.40;67.60;;;;;;5019260;28;924;-67
2022/10/13 00:28:26;;;;;;;;;;;20.40;67.60;;;;;;5023047;28;1330;-67
2022/10/13 00:30:52;;;;;;;;;;;20.40;67.60;;;;;;5021258;28;820;-66
2022/10/13 00:33:17;;;;;;;;;;;20.40;67.60;;;;;;5019968;28;1938;-67
2022/10/13 00:35:43;;;;;;;;;;;20.40;67.60;;;;;;5021683;28;1104;-68
2022/10/13 00:38:09;;;;;;;;;;;20.40;67.60;;;;;;5005099;28;1902;-67
2022/10/13 00:40:41;;;;;;;;;;;20.40;67.60;;;;;;5019601;28;1397;-67
2022/10/13 00:43:12;;;;;;;;;;;20.40;67.60;;;;;;5020591;28;867;-67
2022/10/13 00:45:37;;;;;;;;;;;20.40;67.60;;;;;;5008521;28;1511;-67
2022/10/13 00:48:03;;;;;;;;;;;20.40;67.60;;;;;;5017720;28;1395;-67
2022/10/13 00:50:31;;;;;;;;;;;20.40;67.60;;;;;;5020861;28;813;-67
2022/10/13 00:52:56;;;;;;;;;;;20.40;67.60;;;;;;5005673;28;927;-68
2022/10/13 00:55:23;;;;;;;;;;;20.40;67.70;;;;;;5006645;28;1019;-66
2022/10/13 00:57:53;;;;;;;;;;;20.40;67.60;;;;;;5001898;28;1954;-67
2022/10/13 01:00:19;;;;;;;;;;;20.40;67.60;;;;;;5003599;28;1160;-68
2022/10/13 01:02:44;;;;;;;;;;;20.40;67.60;;;;;;5020630;28;1367;-67
2022/10/13 01:05:09;;;;;;;;;;;20.40;67.70;;;;;;5017396;28;1241;-67
2022/10/13 01:07:35;;;;;;;;;;;20.40;67.70;;;;;;5022594;28;1383;-68
2022/10/13 01:10:01;;;;;;;;;;;20.40;67.60;;;;;;5008139;28;904;-67
2022/10/13 01:12:50;;;;;;;;;;;20.40;67.70;;;;;;5006564;28;860;-67
2022/10/13 01:15:27;;;;;;;;;;;20.40;67.70;;;;;;5008847;28;1179;-67
2022/10/13 01:17:57;;;;;;;;;;;20.40;67.70;;;;;;5004382;28;1930;-67
2022/10/13 01:20:32;;;;;;;;;;;20.40;67.70;;;;;;5003293;28;830;-67
2022/10/13 01:23:11;;;;;;;;;;;20.40;67.60;;;;;;5018405;28;991;-67
2022/10/13 01:25:47;;;;;;;;;;;20.40;67.70;;;;;;5002026;28;1015;-67
2022/10/13 01:28:26;;;;;;;;;;;20.40;67.70;;;;;;5002645;28;1327;-67
2022/10/13 01:30:57;;;;;;;;;;;20.40;67.70;;;;;;5005187;28;864;-67
2022/10/13 01:33:38;;;;;;;;;;;20.40;67.70;;;;;;5018175;28;1881;-67
2022/10/13 01:36:22;;;;;;;;;;;20.40;67.70;;;;;;5020106;28;1897;-68
2022/10/13 01:39:01;;;;;;;;;;;20.40;67.70;;;;;;5006331;28;1969;-67
2022/10/13 01:41:32;;;;;;;;;;;20.40;67.70;;;;;;5005856;28;1663;-67
2022/10/13 01:44:04;;;;;;;;;;;20.40;67.70;;;;;;5003468;28;1219;-67
2022/10/13 01:46:30;;;;;;;;;;;20.40;67.70;;;;;;5024064;28;1656;-65
2022/10/13 01:48:57;;;;;;;;;;;20.40;67.70;;;;;;5020344;28;1331;-67
2022/10/13 01:51:23;;;;;;;;;;;20.40;67.70;;;;;;5005041;28;1582;-68
2022/10/13 01:53:48;;;;;;;;;;;20.40;67.70;;;;;;5005981;28;1501;-67
2022/10/13 01:56:14;;;;;;;;;;;20.40;67.70;;;;;;5006131;28;1370;-68
2022/10/13 01:58:39;;;;;;;;;;;20.40;67.70;;;;;;5019801;28;1898;-68
2022/10/13 02:01:08;;;;;;;;;;;20.40;67.80;;;;;;5020674;28;1417;-68
2022/10/13 02:03:35;;;;;;;;;;;20.40;67.70;;;;;;5020837;28;1289;-67
2022/10/13 02:06:06;;;;;;;;;;;20.40;67.80;;;;;;5005817;28;1374;-67
2022/10/13 02:08:39;;;;;;;;;;;20.40;67.70;;;;;;5003692;28;1434;-67
2022/10/13 02:11:07;;;;;;;;;;;20.40;67.80;;;;;;5003221;28;1515;-67
2022/10/13 02:13:33;;;;;;;;;;;20.40;67.80;;;;;;5022200;28;1403;-67
2022/10/13 02:15:58;;;;;;;;;;;20.40;67.70;;;;;;5003825;28;1309;-66
2022/10/13 02:18:33;;;;;;;;;;;20.40;67.70;;;;;;5006222;28;2311;-67
2022/10/13 02:20:59;;;;;;;;;;;20.40;67.80;;;;;;5002077;28;1335;-65
2022/10/13 02:23:24;;;;;;;;;;;20.40;67.70;;;;;;5005163;28;1249;-67
2022/10/13 02:25:50;;;;;;;;;;;20.40;67.70;;;;;;4987595;28;1538;-66
2022/10/13 02:28:15;;;;;;;;;;;20.40;67.70;;;;;;5005656;28;1271;-67
2022/10/13 02:30:41;;;;;;;;;;;20.40;67.70;;;;;;5003419;28;1070;-66
2022/10/13 02:33:06;;;;;;;;;;;20.40;67.70;;;;;;5014816;28;1385;-66
2022/10/13 02:35:32;;;;;;;;;;;20.40;67.70;;;;;;5001318;28;861;-65
2022/10/13 02:37:58;;;;;;;;;;;20.40;67.70;;;;;;5002882;28;1966;-66
2022/10/13 02:40:23;;;;;;;;;;;20.40;67.70;;;;;;5009050;28;914;-67
2022/10/13 02:42:48;;;;;;;;;;;20.40;68.50;;;;;;5005252;28;843;-66
2022/10/13 02:45:14;;;;;;;;;;;20.40;67.80;;;;;;5026638;28;867;-68
2022/10/13 02:47:39;;;;;;;;;;;20.50;67.80;;;;;;5023665;28;1342;-67
2022/10/13 02:50:05;;;;;;;;;;;20.40;67.70;;;;;;5020918;28;808;-66
2022/10/13 02:52:30;;;;;;;;;;;20.40;67.80;;;;;;5024248;28;922;-67
2022/10/13 02:54:56;;;;;;;;;;;20.40;67.80;;;;;;5020923;28;888;-67
2022/10/13 02:57:21;;;;;;;;;;;20.40;67.80;;;;;;5024065;28;1271;-67
2022/10/13 02:59:47;;;;;;;;;;;20.40;67.80;;;;;;5006435;28;1899;-66
2022/10/13 03:02:12;;;;;;;;;;;20.40;67.80;;;;;;5022505;28;883;-68
2022/10/13 03:04:38;;;;;;;;;;;20.40;67.80;;;;;;5021802;28;1014;-67
2022/10/13 03:07:03;;;;;;;;;;;20.40;67.80;;;;;;5024773;28;1330;-67
2022/10/13 03:09:29;;;;;;;;;;;20.40;67.80;;;;;;5026892;28;808;-66
2022/10/13 03:11:54;;;;;;;;;;;20.40;67.80;;;;;;5022090;28;927;-67
2022/10/13 03:14:19;;;;;;;;;;;20.40;67.80;;;;;;5021304;28;936;-67
2022/10/13 03:16:45;;;;;;;;;;;20.40;67.80;;;;;;5022356;28;802;-67
2022/10/13 03:19:10;;;;;;;;;;;20.40;67.80;;;;;;5023856;28;1894;-66
2022/10/13 03:21:36;;;;;;;;;;;20.40;67.80;;;;;;5021358;28;897;-66
2022/10/13 03:24:04;;;;;;;;;;;20.50;67.70;;;;;;5016092;28;1134;-67
2022/10/13 03:26:30;;;;;;;;;;;20.50;67.60;;;;;;5024080;28;828;-66
2022/10/13 03:28:55;;;;;;;;;;;20.50;67.60;;;;;;5011785;28;1375;-67
2022/10/13 03:31:21;;;;;;;;;;;20.50;67.60;;;;;;5008773;28;1370;-67
2022/10/13 03:33:46;;;;;;;;;;;20.50;67.40;;;;;;5021771;28;1161;-66
2022/10/13 03:36:12;;;;;;;;;;;20.50;67.40;;;;;;5023917;28;1653;-66
2022/10/13 03:38:37;;;;;;;;;;;20.60;67.40;;;;;;5020598;28;1898;-67
2022/10/13 03:41:04;;;;;;;;;;;20.60;67.30;;;;;;5021215;28;954;-66
2022/10/13 03:43:29;;;;;;;;;;;20.60;67.30;;;;;;5022346;28;859;-66
2022/10/13 03:45:58;;;;;;;;;;;20.60;67.20;;;;;;5020252;28;1046;-66
2022/10/13 03:48:23;;;;;;;;;;;20.60;67.10;;;;;;5006199;28;1277;-68
2022/10/13 03:50:49;;;;;;;;;;;20.60;67.00;;;;;;5003921;28;912;-68
2022/10/13 03:53:14;;;;;;;;;;;20.60;67.00;;;;;;5019697;28;863;-67
2022/10/13 03:55:40;;;;;;;;;;;20.70;67.10;;;;;;5022347;28;888;-67
2022/10/13 03:58:05;;;;;;;;;;;20.70;67.10;;;;;;5020067;28;1910;-67
2022/10/13 04:00:30;;;;;;;;;;;20.70;67.00;;;;;;5022224;28;883;-67
2022/10/13 04:02:56;;;;;;;;;;;20.70;66.90;;;;;;5020684;28;907;-67
2022/10/13 04:05:21;;;;;;;;;;;20.70;66.90;;;;;;5020495;28;928;-66
2022/10/13 04:07:47;;;;;;;;;;;20.70;66.90;;;;;;5022440;28;1245;-66
2022/10/13 04:10:12;;;;;;;;;;;20.70;66.90;;;;;;5021668;28;974;-67
2022/10/13 04:12:38;;;;;;;;;;;20.70;66.90;;;;;;5020172;28;830;-68
2022/10/13 04:15:03;;;;;;;;;;;20.70;66.80;;;;;;5017725;28;910;-68
2022/10/13 04:17:29;;;;;;;;;;;20.70;66.80;;;;;;5006413;28;1230;-67
2022/10/13 04:19:54;;;;;;;;;;;20.70;66.80;;;;;;5005149;28;1902;-66
2022/10/13 04:22:20;;;;;;;;;;;20.70;66.80;;;;;;5021186;28;824;-66
2022/10/13 04:24:45;;;;;;;;;;;20.70;66.80;;;;;;5019165;28;994;-69
2022/10/13 04:27:11;;;;;;;;;;;20.70;66.80;;;;;;5022178;28;1295;-68
2022/10/13 04:29:36;;;;;;;;;;;20.70;66.80;;;;;;5009917;28;904;-68
2022/10/13 04:32:02;;;;;;;;;;;20.70;66.80;;;;;;5020345;28;1502;-68
2022/10/13 04:34:27;;;;;;;;;;;20.70;66.80;;;;;;5004492;28;950;-69
2022/10/13 04:36:52;;;;;;;;;;;20.70;66.80;;;;;;5020437;28;1251;-67
2022/10/13 04:39:18;;;;;;;;;;;20.70;66.80;;;;;;5019948;28;1899;-68
2022/10/13 04:41:43;;;;;;;;;;;20.70;66.70;;;;;;5020357;28;832;-67
2022/10/13 04:44:09;;;;;;;;;;;20.70;66.80;;;;;;5021043;28;900;-68
2022/10/13 04:46:34;;;;;;;;;;;20.70;66.80;;;;;;5018903;28;926;-70
2022/10/13 04:49:00;;;;;;;;;;;20.70;66.80;;;;;;5021506;28;1291;-66
2022/10/13 04:51:25;;;;;;;;;;;20.70;66.80;;;;;;5020527;28;1034;-67
2022/10/13 04:53:55;;;;;;;;;;;20.70;66.80;;;;;;5006505;28;950;-67
2022/10/13 04:56:20;;;;;;;;;;;20.70;66.80;;;;;;5003736;28;1538;-67
2022/10/13 04:58:45;;;;;;;;;;;20.70;66.90;;;;;;5021136;28;3987;-67
2022/10/13 05:01:15;;;;;;;;;;;20.70;66.90;;;;;;5019371;28;920;-66
2022/10/13 05:03:41;;;;;;;;;;;20.70;66.90;;;;;;5003736;28;887;-67
2022/10/13 05:06:12;;;;;;;;;;;20.70;66.90;;;;;;5019381;28;856;-67
2022/10/13 05:08:37;;;;;;;;;;;20.70;66.90;;;;;;5020952;28;1310;-67
2022/10/13 05:11:03;;;;;;;;;;;20.70;66.90;;;;;;5020557;28;900;-66
2022/10/13 05:13:28;;;;;;;;;;;20.70;67.00;;;;;;5020039;28;864;-67
2022/10/13 05:15:54;;;;;;;;;;;20.70;67.00;;;;;;5020764;28;836;-69
2022/10/13 05:18:19;;;;;;;;;;;20.70;67.00;;;;;;5022178;28;1965;-66
2022/10/13 05:20:45;;;;;;;;;;;20.70;67.80;;;;;;5018774;28;841;-68
2022/10/13 05:23:11;;;;;;;;;;;20.70;67.00;;;;;;5016577;28;879;-68
2022/10/13 05:25:36;;;;;;;;;;;20.70;67.10;;;;;;5020870;28;863;-68
2022/10/13 05:28:05;;;;;;;;;;;20.70;67.10;;;;;;5024130;28;1339;-67
2022/10/13 05:30:31;;;;;;;;;;;20.70;67.10;;;;;;5019864;28;1010;-67
2022/10/13 05:32:57;;;;;;;;;;;20.70;67.10;;;;;;5001647;28;1380;-66
2022/10/13 05:35:22;;;;;;;;;;;20.70;67.10;;;;;;5020340;28;820;-67
2022/10/13 05:37:48;;;;;;;;;;;20.60;67.00;;;;;;5022231;28;1902;-67
2022/10/13 05:40:14;;;;;;;;;;;20.60;67.10;;;;;;5019624;28;883;-66
2022/10/13 05:42:39;;;;;;;;;;;20.60;67.10;;;;;;5018941;28;882;-66
2022/10/13 05:45:05;;;;;;;;;;;20.60;67.10;;;;;;5016408;28;1085;-66
2022/10/13 05:47:31;;;;;;;;;;;20.60;67.20;;;;;;5018801;28;1364;-66
2022/10/13 05:49:56;;;;;;;;;;;20.60;67.20;;;;;;5019526;28;1026;-66
2022/10/13 05:52:22;;;;;;;;;;;20.60;67.20;;;;;;5017882;28;935;-67
2022/10/13 05:54:48;;;;;;;;;;;20.60;67.20;;;;;;5001640;28;1027;-67
2022/10/13 05:57:21;;;;;;;;;;;20.60;67.20;;;;;;5016544;28;1251;-67
2022/10/13 05:59:48;;;;;;;;;;;20.60;67.20;;;;;;5019614;28;1902;-67
2022/10/13 06:02:14;;;;;;;;;;;20.60;67.20;;;;;;4999741;28;828;-68
2022/10/13 06:04:44;;;;;;;;;;;20.60;67.30;;;;;;5003189;28;869;-67
2022/10/13 06:07:09;;;;;;;;;;;20.60;67.30;;;;;;5004668;28;1225;-67
2022/10/13 06:09:36;;;;;;;;;;;20.60;67.40;;;;;;5019373;28;869;-67
2022/10/13 06:12:02;;;;;;;;;;;20.60;67.30;;;;;;5020216;28;846;-67
2022/10/13 06:14:28;;;;;;;;;;;20.60;67.30;;;;;;5017942;28;883;-67
2022/10/13 06:16:53;;;;;;;;;;;20.60;67.40;;;;;;5004032;28;1255;-67
2022/10/13 06:19:20;;;;;;;;;;;20.60;67.40;;;;;;5013104;28;1907;-67
2022/10/13 06:21:45;;;;;;;;;;;20.60;67.40;;;;;;5019338;28;891;-67
2022/10/13 06:24:11;;;;;;;;;;;20.60;67.40;;;;;;5019830;28;1062;-67
2022/10/13 06:26:36;;;;;;;;;;;20.60;67.50;;;;;;5020454;28;868;-66
2022/10/13 06:29:02;;;;;;;;;;;20.60;67.50;;;;;;5006132;28;1346;-67
2022/10/13 06:31:27;;;;;;;;;;;20.60;67.50;;;;;;5020464;28;1337;-68
2022/10/13 06:33:53;;;;;;;;;;;20.50;67.40;;;;;;5017382;28;911;-66
2022/10/13 06:36:18;;;;;;;;;;;20.60;67.60;;;;;;5015211;28;831;-67
2022/10/13 06:38:43;;;;;;;;;;;20.60;67.60;;;;;;5017178;28;1981;-67
2022/10/13 06:41:09;;;;;;;;;;;20.60;67.60;;;;;;5019920;28;2213;-69
2022/10/13 06:43:35;;;;;;;;;;;20.60;67.60;;;;;;5020159;28;2041;-67
2022/10/13 06:46:00;;;;;;;;;;;20.60;67.60;;;;;;5020126;28;1027;-67
2022/10/13 06:48:26;;;;;;;;;;;20.50;67.50;;;;;;5021619;28;1293;-67
2022/10/13 06:50:51;;;;;;;;;;;20.60;67.70;;;;;;5005572;28;944;-67
2022/10/13 06:53:17;;;;;;;;;;;20.50;67.50;;;;;;5018419;28;1196;-66
2022/10/13 06:55:42;;;;;;;;;;;20.50;67.60;;;;;;5000095;28;4520;-67
2022/10/13 06:58:11;;;;;;;;;;;20.50;67.60;;;;;;5017920;28;1918;-68
2022/10/13 07:00:36;;;;;;;;;;;20.50;67.60;;;;;;5018902;28;911;-67
2022/10/13 07:03:02;;;;;;;;;;;20.50;67.70;;;;;;5018766;28;855;-66
2022/10/13 07:05:27;;;;;;;;;;;20.50;67.60;;;;;;5017580;28;812;-67
2022/10/13 07:07:53;;;;;;;;;;;20.50;67.60;;;;;;5002124;28;1374;-67
2022/10/13 07:10:18;;;;;;;;;;;20.50;67.60;;;;;;5018231;28;1006;-67
2022/10/13 07:12:44;;;;;;;;;;;20.50;67.50;;;;;;5020868;28;910;-67
2022/10/13 07:15:09;;;;;;;;;;;20.60;67.60;;;;;;5021606;28;792;-65
2022/10/13 07:17:35;;;;;;;;;;;20.60;67.60;;;;;;5017515;28;1221;-65
2022/10/13 07:20:02;;;;;;;;;;;20.60;67.50;;;;;;5015077;28;1963;-67
2022/10/13 07:22:28;;;;;;;;;;;20.60;67.50;;;;;;5019407;28;864;-67
2022/10/13 07:24:53;;;;;;;;;;;20.60;67.50;;;;;;5005467;28;853;-67
2022/10/13 07:27:19;;;;;;;;;;;20.60;67.40;;;;;;5026419;28;1303;-66
2022/10/13 07:29:44;;;;;;;;;;;20.60;67.40;;;;;;5023323;28;875;-66
2022/10/13 07:32:09;;;;;;;;;;;20.60;67.40;;;;;;5023100;28;1431;-66
2022/10/13 07:34:35;;;;;;;;;;;20.60;67.30;;;;;;5005123;28;935;-66
2022/10/13 07:37:00;;;;;;;;;;;20.60;67.30;;;;;;5021679;28;1359;-66
2022/10/13 07:39:26;;;;;;;;;;;20.60;67.30;;;;;;5025304;28;1906;-66
2022/10/13 07:41:51;;;;;;;;;;;20.70;67.30;;;;;;5021373;28;1274;-66
2022/10/13 07:44:17;;;;;;;;;;;20.60;67.30;;;;;;5024096;28;812;-66
2022/10/13 07:46:42;;;;;;;;;;;20.70;67.30;;;;;;5021747;28;1503;-66
2022/10/13 07:49:07;;;;;;;;;;;20.70;67.20;;;;;;5020194;28;1397;-66
2022/10/13 07:51:33;;;;;;;;;;;20.70;67.20;;;;;;5020976;28;1089;-66
2022/10/13 07:53:58;;;;;;;;;;;20.70;67.20;;;;;;5017590;28;1029;-66
2022/10/13 07:56:24;;;;;;;;;;;20.70;67.20;;;;;;5020196;28;1066;-66
2022/10/13 07:58:49;;;;;;;;;;;20.70;67.20;;;;;;5021646;28;1910;-66
2022/10/13 08:01:15;;;;;;;;;;;20.70;67.10;;;;;;5021804;28;866;-66
2022/10/13 08:03:40;;;;;;;;;;;20.70;67.10;;;;;;5020926;28;1030;-66
2022/10/13 08:06:06;;;;;;;;;;;20.70;67.10;;;;;;5021385;28;934;-66
2022/10/13 08:08:31;;;;;;;;;;;20.70;67.00;;;;;;5004409;28;1261;-68
2022/10/13 08:11:00;;;;;;;;;;;20.70;67.10;;;;;;5024144;28;900;-68
2022/10/13 08:13:26;;;;;;;;;;;20.70;67.10;;;;;;5018361;28;891;-68
2022/10/13 08:15:51;;;;;;;;;;;20.70;67.10;;;;;;5012771;28;851;-68
2022/10/13 08:18:17;;;;;;;;;;;20.70;67.10;;;;;;5020325;28;1957;-67
2022/10/13 08:20:43;;;;;;;;;;;20.70;67.10;;;;;;5021394;28;820;-67
2022/10/13 08:23:08;;;;;;;;;;;20.70;67.10;;;;;;5019568;28;867;-67
2022/10/13 08:25:37;;;;;;;;;;;20.70;67.10;;;;;;5020342;28;875;-67
2022/10/13 08:28:03;;;;;;;;;;;20.70;67.10;;;;;;5020628;28;1313;-67
2022/10/13 08:30:29;;;;;;;;;;;20.70;67.10;;;;;;5020789;28;1034;-67
2022/10/13 08:32:54;;;;;;;;;;;20.70;67.20;;;;;;5019867;28;1436;-67
2022/10/13 08:35:20;;;;;;;;;;;20.70;67.20;;;;;;5021289;28;1062;-67
2022/10/13 08:37:45;;;;;;;;;;;20.70;67.30;;;;;;5019242;28;1965;-67
2022/10/13 08:40:12;;;;;;;;;;;20.70;67.30;;;;;;5020632;28;781;-67
2022/10/13 08:42:39;;;;;;;;;;;20.70;67.30;;;;;;5019238;28;825;-67
2022/10/13 08:45:05;;;;;;;;;;;20.70;67.30;;;;;;5003256;28;1281;-67
2022/10/13 08:47:41;;;;;;;;;;;20.70;67.40;;;;;;5004693;28;1263;-66
2022/10/13 08:50:14;;;;;;;;;;;20.70;67.40;;;;;;5005993;28;4900;-66
2022/10/13 08:52:50;;;;;;;;;;;20.70;67.40;;;;;;5005401;28;2114;-67
2022/10/13 08:55:42;;;;;;;;;;;20.70;67.40;;;;;;5025439;28;1339;-66
2022/10/13 08:58:26;;;;;;;;;;;20.70;67.50;;;;;;4992320;28;1910;-66
2022/10/13 09:01:10;;;;;;;;;;;20.60;67.40;;;;;;5005799;28;1917;-66
2022/10/13 09:03:47;;;;;;;;;;;20.70;68.20;;;;;;5019585;28;1116;-66
2022/10/13 09:06:30;;;;;;;;;;;20.60;67.40;;;;;;5017565;28;1154;-67
2022/10/13 09:09:09;;;;;;;;;;;20.60;67.40;;;;;;5020864;28;1362;-66
2022/10/13 09:11:35;;;;;;;;;;;20.70;67.60;;;;;;5001790;28;1390;-66
2022/10/13 09:14:01;;;;;;;;;;;20.60;67.50;;;;;;5018359;28;2240;-66
2022/10/13 09:16:37;;;;;;;;;;;20.60;67.50;;;;;;5002445;28;2136;-66
2022/10/13 09:19:21;;;;;;;;;;;20.60;67.60;;;;;;5003951;28;2073;-66
2022/10/13 09:21:47;;;;;;;;;;;20.60;67.50;;;;;;5022091;28;1245;-66
2022/10/13 09:24:14;;;;;;;;;;;20.60;67.50;;;;;;5005107;28;1290;-66
2022/10/13 09:26:39;;;;;;;;;;;20.60;67.70;;;;;;5023907;28;1373;-65
2022/10/13 09:29:08;;;;;;;;;;;20.60;67.60;;;;;;5000991;28;1995;-66
2022/10/13 09:31:36;;;;;;;;;;;20.60;67.60;;;;;;5004931;28;1379;-67
2022/10/13 09:34:02;;;;;;;;;;;20.60;67.60;;;;;;5002103;28;1082;-66
2022/10/13 09:36:28;;;;;;;;;;;20.60;67.70;;;;;;5006019;28;1339;-66
2022/10/13 09:39:05;;;;;;;;;;;20.60;67.70;;;;;;5004974;28;1910;-66
2022/10/13 09:41:31;;;;;;;;;;;20.60;67.80;;;;;;5019993;28;812;-66
2022/10/13 09:43:58;;;;;;;;;;;20.60;67.80;;;;;;5000321;28;1034;-67
2022/10/13 09:46:56;;;;;;;;;;;20.60;67.80;;;;;;5004605;28;1350;-66
2022/10/13 09:49:29;;;;;;;;;;;20.60;67.80;;;;;;4980951;28;1296;-66
2022/10/13 09:52:04;;;;;;;;;;;20.60;67.90;;;;;;5001143;28;1947;-66
2022/10/13 09:54:39;;;;;;;;;;;20.50;67.80;;;;;;5003542;28;1380;-66
2022/10/13 09:57:06;;;;;;;;;;;20.60;67.90;;;;;;5004325;28;1437;-66
2022/10/13 09:59:32;;;;;;;;;;;20.60;68.00;;;;;;5001294;28;1902;-66
2022/10/13 10:01:59;;;;;;;;;;;20.60;68.00;;;;;;5006242;28;1289;-66
2022/10/13 10:04:25;;;;;;;;;;;20.50;67.90;;;;;;5003172;28;1038;-66
2022/10/13 10:06:50;;;;;;;;;;;20.60;68.00;;;;;;5000980;28;1720;-66
2022/10/13 10:09:35;;;;;;;;;;;20.50;68.00;;;;;;5004572;28;2275;-66
2022/10/13 10:12:01;;;;;;;;;;;20.60;68.00;;;;;;5004623;28;1081;-66
2022/10/13 10:14:27;;;;;;;;;;;20.50;68.00;;;;;;5022580;28;1367;-66
2022/10/13 10:16:56;;;;;;;;;;;20.50;68.00;;;;;;5017224;28;1303;-66
2022/10/13 10:19:21;;;;;;;;;;;20.50;68.00;;;;;;5004860;28;1961;-66
2022/10/13 10:21:55;;;;;;;;;;;20.50;68.10;;;;;;5019418;28;884;-66
2022/10/13 10:24:25;;;;;;;;;;;20.50;68.10;;;;;;5020307;28;840;-66
2022/10/13 10:26:53;;;;;;;;;;;20.50;68.10;;;;;;5003902;28;1283;-67
2022/10/13 10:29:22;;;;;;;;;;;20.50;68.20;;;;;;5004051;28;834;-67
2022/10/13 10:31:54;;;;;;;;;;;20.50;68.10;;;;;;5004974;28;1093;-66
2022/10/13 10:34:23;;;;;;;;;;;20.50;68.10;;;;;;5004367;28;883;-66
2022/10/13 10:36:52;;;;;;;;;;;20.50;68.20;;;;;;5015984;28;1299;-68
2022/10/13 10:39:22;;;;;;;;;;;20.50;68.20;;;;;;5018212;28;1957;-66
2022/10/13 10:42:07;;;;;;;;;;;20.50;68.20;;;;;;5002392;28;1164;-66
2022/10/13 10:44:33;;;;;;;;;;;20.50;68.20;;;;;;5018257;28;833;-66
2022/10/13 10:47:31;;;;;;;;;;;20.50;68.20;;;;;;5004086;28;1367;-67
2022/10/13 10:50:00;;;;;;;;;;;20.50;68.20;;;;;;4969885;28;1218;-67
2022/10/13 10:52:29;;;;;;;;;;;20.50;68.20;;;;;;5018045;28;908;-66
2022/10/13 10:54:54;;;;;;;;;;;20.50;68.20;;;;;;5003410;28;2027;-66
2022/10/13 10:57:26;;;;;;;;;;;20.50;68.40;;;;;;5020340;28;1458;-66
2022/10/13 10:59:52;;;;;;;;;;;20.50;68.30;;;;;;5023454;28;1971;-66
2022/10/13 11:02:29;;;;;;;;;;;20.50;68.20;;;;;;5023379;28;959;-66
2022/10/13 11:04:54;;;;;;;;;;;20.50;68.30;;;;;;4992049;28;1232;-66
2022/10/13 11:07:22;;;;;;;;;;;20.50;68.30;;;;;;5023881;28;1401;-66
2022/10/13 11:09:48;;;;;;;;;;;20.50;68.30;;;;;;5023841;28;1333;-67
2022/10/13 11:12:19;;;;;;;;;;;20.50;68.30;;;;;;5024457;28;1231;-66
2022/10/13 11:14:45;;;;;;;;;;;20.50;68.40;;;;;;5023541;28;1443;-67
2022/10/13 11:17:18;;;;;;;;;;;20.50;68.40;;;;;;5008131;28;1411;-66
2022/10/13 11:19:43;;;;;;;;;;;20.50;68.40;;;;;;5008979;28;1906;-67
2022/10/13 11:22:10;;;;;;;;;;;20.50;68.40;;;;;;5009095;28;804;-67
2022/10/13 11:24:37;;;;;;;;;;;20.50;68.40;;;;;;5021470;28;800;-65
2022/10/13 11:27:18;;;;;;;;;;;20.50;68.40;;;;;;5021690;28;2008;-67
2022/10/13 11:29:53;;;;;;;;;;;20.50;68.50;;;;;;5018676;28;4128;-66
2022/10/13 11:34:57;;;;;;;;;;;20.50;68.50;;;;;;5022615;28;1111;-67
2022/10/13 11:37:22;;;;;;;;;;;20.50;68.50;;;;;;5001927;28;1907;-66
2022/10/13 11:40:11;;;;;;;;;;;20.50;68.50;;;;;;5005025;28;1972;-67
2022/10/13 11:42:36;;;;;;;;;;;20.50;68.50;;;;;;4989357;28;1243;-66
2022/10/13 11:45:05;;;;;;;;;;;20.50;68.60;;;;;;5021346;28;1347;-67
2022/10/13 11:47:37;;;;;;;;;;;20.50;68.60;;;;;;5007243;28;1446;-67
2022/10/13 11:50:02;;;;;;;;;;;20.50;68.70;;;;;;5021430;28;917;-66
2022/10/13 11:52:34;;;;;;;;;;;20.50;68.60;;;;;;5025671;28;856;-66
2022/10/13 11:55:19;;;;;;;;;;;20.50;68.60;;;;;;5023050;28;880;-66
2022/10/13 11:57:45;;;;;;;;;;;20.50;68.60;;;;;;5023773;28;1422;-67
2022/10/13 12:00:14;;;;;;;;;;;20.50;68.60;;;;;;5021940;28;1894;-67
2022/10/13 12:02:49;;;;;;;;;;;20.50;68.70;;;;;;5021966;28;1923;-67
2022/10/13 12:05:19;;;;;;;;;;;20.50;68.70;;;;;;5005282;28;1494;-66
2022/10/13 12:07:45;;;;;;;;;;;20.50;68.70;;;;;;5008236;28;1421;-67
2022/10/13 12:10:15;;;;;;;;;;;20.50;68.60;;;;;;5010600;28;1416;-68
2022/10/13 12:12:47;;;;;;;;;;;20.50;69.00;;;;;;5009824;28;1329;-69
2022/10/13 12:15:25;;;;;;;;;;;20.50;68.70;;;;;;5025023;28;1051;-69
2022/10/13 12:17:50;;;;;;;;;;;20.50;68.80;;;;;;4991304;28;1463;-67
2022/10/13 12:20:20;;;;;;;;;;;20.50;68.60;;;;;;5024110;28;1938;-67
2022/10/13 12:22:46;;;;;;;;;;;20.50;68.70;;;;;;5008070;28;1682;-67
2022/10/13 12:25:15;;;;;;;;;;;20.50;68.60;;;;;;5024987;28;1418;-66
2022/10/13 12:27:41;;;;;;;;;;;20.50;68.60;;;;;;5023128;28;1370;-67
2022/10/13 12:30:18;;;;;;;;;;;20.50;68.60;;;;;;5004104;28;1578;-67
2022/10/13 12:32:47;;;;;;;;;;;20.50;68.60;;;;;;5003880;28;1643;-68
2022/10/13 12:35:23;;;;;;;;;;;20.50;68.60;;;;;;5010614;28;1496;-68
2022/10/13 12:37:48;;;;;;;;;;;20.50;68.60;;;;;;5022771;28;1360;-67
2022/10/13 12:40:17;;;;;;;;;;;20.50;68.60;;;;;;5008653;28;1887;-66
2022/10/13 12:42:42;;;;;;;;;;;20.50;68.60;;;;;;5025715;28;1441;-67
2022/10/13 12:45:34;;;;;;;;;;;20.50;68.60;;;;;;5023903;28;1499;-68
2022/10/13 12:47:59;;;;;;;;;;;20.50;68.60;;;;;;5016935;28;1431;-67
2022/10/13 12:50:28;;;;;;;;;;;20.50;68.60;;;;;;5022195;28;1369;-67
2022/10/13 12:52:54;;;;;;;;;;;20.50;68.60;;;;;;5013060;28;4019;-67
2022/10/13 12:55:19;;;;;;;;;;;20.50;68.60;;;;;;5005521;28;1500;-67
2022/10/13 12:57:45;;;;;;;;;;;20.50;68.60;;;;;;5005014;28;1639;-67
2022/10/13 13:00:17;;;;;;;;;;;20.50;68.70;;;;;;5005536;28;1914;-66
2022/10/13 13:02:46;;;;;;;;;;;20.50;68.70;;;;;;5019887;28;1063;-66
2022/10/13 13:05:30;;;;;;;;;;;20.50;68.70;;;;;;5006037;28;1381;-66
2022/10/13 13:07:56;;;;;;;;;;;20.50;68.70;;;;;;5016235;28;1347;-66
2022/10/13 13:10:21;;;;;;;;;;;20.50;68.70;;;;;;5002843;28;909;-66
2022/10/13 13:12:47;;;;;;;;;;;20.50;68.80;;;;;;4990200;28;2343;-67
2022/10/13 13:15:25;;;;;;;;;;;20.50;68.90;;;;;;5000475;28;1662;-66
2022/10/13 13:17:51;;;;;;;;;;;20.50;68.70;;;;;;5005683;28;1377;-67
2022/10/13 13:20:26;;;;;;;;;;;20.50;68.80;;;;;;5016290;28;1902;-67
2022/10/13 13:22:52;;;;;;;;;;;20.50;68.70;;;;;;5002741;28;1720;-67
2022/10/13 13:25:18;;;;;;;;;;;20.50;68.80;;;;;;5017069;28;931;-67
2022/10/13 13:27:43;;;;;;;;;;;20.50;68.70;;;;;;5017003;28;1378;-68
2022/10/13 13:30:09;;;;;;;;;;;20.50;68.80;;;;;;5018441;28;813;-69
2022/10/13 13:32:35;;;;;;;;;;;20.50;68.80;;;;;;5005140;28;1396;-68
2022/10/13 13:35:00;;;;;;;;;;;20.50;68.80;;;;;;5018533;28;1522;-68
2022/10/13 13:37:27;;;;;;;;;;;20.50;68.80;;;;;;5016770;28;1253;-67
2022/10/13 13:39:53;;;;;;;;;;;20.50;68.80;;;;;;5007361;28;1989;-67
2022/10/13 13:42:18;;;;;;;;;;;20.50;68.80;;;;;;5007191;28;852;-66
2022/10/13 13:44:43;;;;;;;;;;;20.50;68.90;;;;;;5015530;28;876;-67
2022/10/13 13:47:11;;;;;;;;;;;20.50;68.90;;;;;;5016657;28;1370;-67
2022/10/13 13:49:37;;;;;;;;;;;20.40;68.80;;;;;;5003567;28;2246;-68
2022/10/13 13:52:02;;;;;;;;;;;20.50;68.90;;;;;;5022687;28;1292;-67
2022/10/13 13:54:28;;;;;;;;;;;20.50;69.60;;;;;;5022149;28;1341;-69
2022/10/13 13:56:53;;;;;;;;;;;20.50;68.90;;;;;;5020517;28;1460;-68
2022/10/13 13:59:19;;;;;;;;;;;20.50;68.90;;;;;;5020702;28;1895;-68
2022/10/13 14:01:44;;;;;;;;;;;20.50;68.90;;;;;;5022195;28;1395;-67
2022/10/13 14:04:09;;;;;;;;;;;20.50;68.90;;;;;;5017340;28;1887;-66
2022/10/13 14:06:36;;;;;;;;;;;20.50;68.90;;;;;;5022523;28;1261;-66
2022/10/13 14:09:02;;;;;;;;;;;20.50;69.70;;;;;;5025055;28;1826;-69
2022/10/13 14:11:28;;;;;;;;;;;20.50;68.90;;;;;;5020141;28;1408;-68
2022/10/13 14:13:56;;;;;;;;;;;20.50;68.90;;;;;;5025250;28;1419;-68
2022/10/13 14:16:22;;;;;;;;;;;20.50;68.90;;;;;;5024356;28;1416;-68
2022/10/13 14:18:47;;;;;;;;;;;20.50;68.90;;;;;;5009627;28;1898;-67
2022/10/13 14:21:13;;;;;;;;;;;20.50;68.90;;;;;;5022486;28;1418;-68
2022/10/13 14:23:39;;;;;;;;;;;20.50;68.90;;;;;;5021598;28;1634;-68
2022/10/13 14:26:06;;;;;;;;;;;20.50;68.90;;;;;;5019630;28;1828;-68
2022/10/13 14:28:31;;;;;;;;;;;20.50;68.90;;;;;;5022134;28;1455;-67
2022/10/13 14:30:57;;;;;;;;;;;20.40;68.90;;;;;;5023767;28;1372;-69
2022/10/13 14:33:22;;;;;;;;;;;20.40;68.90;;;;;;5024644;28;1452;-66
2022/10/13 14:35:48;;;;;;;;;;;20.40;69.00;;;;;;5023238;28;1730;-67
2022/10/13 14:38:14;;;;;;;;;;;20.40;69.00;;;;;;5020458;28;1895;-67
2022/10/13 14:40:40;;;;;;;;;;;20.50;69.10;;;;;;5019914;28;1574;-68